CW7977 Corfu GR current weather conditions

sailwx.info

Wind from 225

Air temperature 13.3° C
Dewpoint 11.9° C

Last reported at 2014-Oct-25 22:47 UTC.
Time now 2014-Oct-25 23:33 UTC

Location: N 39°37' E 019°54'.
View on Google Maps.

See reports from other nearby stations

  
Tides and Currents Weather Stations Pressure Air Temp Water Temp Dewpoint Dewpoint Depression Visibility Wind Speed Wind Dir Waves Ship Positions
date/time (UTC)wind fromknots sea level pressurealtimeterstation pressurevisibilityair tempwater tempwave heightnotes
2014-Oct-25 22:47 225 13.3
2014-Oct-25 22:37 248 13.3
2014-Oct-25 22:27 248 13.9
2014-Oct-25 22:17 248 13.9
2014-Oct-25 22:07 248 0 gusting 2 13.9
2014-Oct-25 21:57 208 0 gusting 1 13.9
2014-Oct-25 21:47 225 13.9
2014-Oct-25 21:37 225 14.4
2014-Oct-25 21:27 225 14.4
2014-Oct-25 21:17 245 0 gusting 1 14.4
2014-Oct-25 21:07 248 0 gusting 2 14.4
2014-Oct-25 20:57 124 14.4
2014-Oct-25 20:47 112 0 gusting 1 14.4
2014-Oct-25 20:37 111 0 gusting 2 14.4
2014-Oct-25 20:27 048 14.4
2014-Oct-25 20:17 045 14.4
2014-Oct-25 20:07 045 14.4
2014-Oct-25 19:47 022 0 gusting 1 14.4
2014-Oct-25 19:37 022 14.4
2014-Oct-25 19:27 091 4 gusting 7 14.4
2014-Oct-25 19:17 108 1 gusting 6 14.4
2014-Oct-25 19:07 133 2 gusting 6 14.4
2014-Oct-25 18:57 145 1 gusting 4 15.0
2014-Oct-25 18:47 091 2 gusting 8 15.0
2014-Oct-25 18:37 122 5 gusting 10 15.6
2014-Oct-25 18:27 126 1 gusting 7 15.6
2014-Oct-25 18:17 058 2 gusting 7 15.6
2014-Oct-25 18:07 082 0 gusting 4 15.6
2014-Oct-25 17:57 041 1 gusting 4 15.6
2014-Oct-25 17:47 045 15.6
2014-Oct-25 17:37 045 0 gusting 1 15.6
2014-Oct-25 17:27 040 0 gusting 1 15.6
2014-Oct-25 17:17 319 15.6
2014-Oct-25 17:07 292 15.6
2014-Oct-25 16:57 292 15.6
2014-Oct-25 16:47 292 16.1
2014-Oct-25 16:37 292 16.1
2014-Oct-25 16:27 292 16.1
2014-Oct-25 16:17 292 16.1
2014-Oct-25 16:07 292 16.1
2014-Oct-25 15:57 259 16.1
2014-Oct-25 15:47 248 16.1
2014-Oct-25 15:37 259 16.7
2014-Oct-25 15:27 270 16.7
2014-Oct-25 15:17 248 0 gusting 1 16.7
2014-Oct-25 15:07 248 17.2
2014-Oct-25 14:57 266 0 gusting 2 17.2
2014-Oct-25 14:47 261 0 gusting 2 17.8
2014-Oct-25 14:37 248 0 gusting 2 17.8
2014-Oct-25 14:27 225 0 gusting 2 17.8
2014-Oct-25 14:17 180 17.8
2014-Oct-25 14:07 180 17.2
2014-Oct-25 13:57 225 17.2
2014-Oct-25 13:47 206 0 gusting 4 17.2
2014-Oct-25 13:37 225 0 gusting 4 17.2
2014-Oct-25 13:27 215 0 gusting 4 17.8
2014-Oct-25 13:17 207 1 gusting 2 17.8
2014-Oct-25 13:07 140 0 gusting 2 17.8
2014-Oct-25 12:57 158 0 gusting 2 17.8
2014-Oct-25 12:47 135 0 gusting 2 18.3
2014-Oct-25 12:37 141 0 gusting 2 18.3
2014-Oct-25 12:27 135 2 gusting 6 18.9
2014-Oct-25 12:17 147 2 gusting 5 18.9
2014-Oct-25 12:07 140 1 gusting 5 18.9
2014-Oct-25 11:57 099 1 gusting 6 18.9
2014-Oct-25 11:47 097 1 gusting 4 18.3
2014-Oct-25 11:37 165 1 gusting 6 18.3
2014-Oct-25 11:27 087 1 gusting 4 18.3
2014-Oct-25 11:17 134 1 gusting 5 18.3
2014-Oct-25 11:07 135 4 gusting 6 18.3
2014-Oct-25 10:57 052 2 gusting 6 18.3
2014-Oct-25 10:47 107 1 gusting 6 17.8
2014-Oct-25 10:37 132 17.8
2014-Oct-25 10:27 122 2 gusting 6 17.8
2014-Oct-25 10:17 146 1 gusting 7 17.8
2014-Oct-25 10:07 150 4 gusting 6 17.8
2014-Oct-25 09:57 120 2 gusting 6 17.8
2014-Oct-25 09:47 131 2 gusting 5 17.8
2014-Oct-25 09:37 144 2 gusting 6 17.8
2014-Oct-25 09:27 147 1 gusting 6 17.8
2014-Oct-25 09:17 135 1 gusting 5 17.2
2014-Oct-25 09:07 140 4 gusting 6 17.2
2014-Oct-25 08:57 121 1 gusting 5 17.2
2014-Oct-25 08:47 113 0 gusting 4 17.2
2014-Oct-25 08:37 042 0 gusting 2 16.7
2014-Oct-25 08:27 158 16.7
2014-Oct-25 08:17 135 0 gusting 2 16.1
2014-Oct-25 08:07 128 0 gusting 2 16.1
2014-Oct-25 07:57 129 15.6
2014-Oct-25 07:47 180 15.0
2014-Oct-25 07:37 225 15.0
2014-Oct-25 07:27 225 14.4
2014-Oct-25 07:17 239 13.9
2014-Oct-25 07:07 225 1 gusting 1 13.3
2014-Oct-25 06:57 202 0 gusting 1 12.8
2014-Oct-25 06:47 225 12.2
2014-Oct-25 06:37 225 1 gusting 2 12.2
2014-Oct-25 06:27 225 0 gusting 2 11.7
2014-Oct-25 06:17 225 11.1
2014-Oct-25 06:07 225 1 gusting 1 10.6
2014-Oct-25 05:57 230 0 gusting 5 10.6
2014-Oct-25 05:47 241 0 gusting 4 10.0
2014-Oct-25 05:37 248 10.0
2014-Oct-25 05:27 270 10.0
2014-Oct-25 05:17 270 10.0
2014-Oct-25 05:07 225 10.6
2014-Oct-25 04:57 233 0 gusting 5 10.6
2014-Oct-25 04:47 248 1 gusting 2 10.6
2014-Oct-25 04:37 248 10.6
2014-Oct-25 04:27 248 10.6
2014-Oct-25 04:17 248 10.6
2014-Oct-25 04:07 262 2 gusting 4 10.6
2014-Oct-25 03:57 225 0 gusting 2 10.6
2014-Oct-25 03:47 248 10.6
2014-Oct-25 03:37 248 10.6
2014-Oct-25 03:27 248 10.6
2014-Oct-25 03:17 248 10.6
2014-Oct-25 03:07 248 10.6
2014-Oct-25 02:57 248 11.1
2014-Oct-25 02:47 248 11.1
2014-Oct-25 02:37 247 0 gusting 2 11.1
2014-Oct-25 02:27 248 11.1
2014-Oct-25 02:17 248 11.1
2014-Oct-25 02:07 248 11.1
2014-Oct-25 01:57 248 11.1
2014-Oct-25 01:47 248 11.1
2014-Oct-25 01:37 248 11.1
2014-Oct-25 01:17 225 0 gusting 2 11.1
2014-Oct-25 01:07 248 0 gusting 4 11.1
2014-Oct-25 00:57 202 11.1
2014-Oct-25 00:47 225 11.1
2014-Oct-25 00:37 247 11.1
2014-Oct-25 00:27 270 11.1
2014-Oct-25 00:17 248 11.1
2014-Oct-25 00:07 248 11.7
2014-Oct-24 23:57 220 0 gusting 2 11.7
2014-Oct-24 23:47 247 11.7
2014-Oct-24 23:37 248 11.7
2014-Oct-24 23:27 248 12.2
2014-Oct-24 23:17 250 1 gusting 2 12.2
2014-Oct-24 23:07 225 12.2
2014-Oct-24 22:57 225 12.8
2014-Oct-24 22:47 234 12.8
2014-Oct-24 22:37 225 13.3
2014-Oct-24 22:27 13.3
2014-Oct-24 22:17 052 2 gusting 5 13.3
2014-Oct-24 22:07 052 1 gusting 4 13.3
2014-Oct-24 21:57 022 0 gusting 4 13.3
2014-Oct-24 21:47 064 2 gusting 5 13.3
2014-Oct-24 21:37 072 1 gusting 5 13.3
2014-Oct-24 21:27 050 1 gusting 6 13.3
2014-Oct-24 21:17 030 0 gusting 5 13.3
2014-Oct-24 21:07 045 3 gusting 6 13.3
2014-Oct-24 20:57 014 1 gusting 10 13.3
2014-Oct-24 20:47 011 5 gusting 11 13.3
2014-Oct-24 20:37 027 6 gusting 10 13.3
2014-Oct-24 20:27 024 4 gusting 8 13.3
2014-Oct-24 20:17 017 4 gusting 6 13.3
2014-Oct-24 20:07 019 1 gusting 6 13.3
2014-Oct-24 19:57 006 2 gusting 8 13.3
2014-Oct-24 19:47 050 2 gusting 7 13.3
2014-Oct-24 19:37 075 2 gusting 7 13.3
2014-Oct-24 19:27 058 2 gusting 7 13.3
2014-Oct-24 19:17 050 1 gusting 5 13.3
2014-Oct-24 19:07 038 0 gusting 6 13.3
2014-Oct-24 18:57 018 3 gusting 8 13.3
2014-Oct-24 18:47 021 3 gusting 10 13.3
2014-Oct-24 18:37 020 3 gusting 8 13.3
2014-Oct-24 18:27 011 5 gusting 13 13.3
2014-Oct-24 18:17 043 3 gusting 12 13.3
2014-Oct-24 18:07 011 4 gusting 11 13.3
2014-Oct-24 17:57 026 2 gusting 8 13.3
2014-Oct-24 17:47 018 4 gusting 10 13.3
2014-Oct-24 17:37 016 5 gusting 11 13.3
2014-Oct-24 17:27 004 4 gusting 7 13.3
2014-Oct-24 17:17 011 2 gusting 7 12.8
2014-Oct-24 17:07 005 3 gusting 8 12.8
2014-Oct-24 16:57 007 2 gusting 8 12.2
2014-Oct-24 16:47 011 2 gusting 8 11.7
2014-Oct-24 16:37 309 0 gusting 2 11.7
2014-Oct-24 16:27 309 0 gusting 4 11.7
2014-Oct-24 16:17 283 2 gusting 5 11.7
2014-Oct-24 15:57 358 0 gusting 1 11.7
2014-Oct-24 15:47 358 11.7
2014-Oct-24 15:37 339 2 gusting 6 12.2
2014-Oct-24 15:27 276 4 gusting 7 12.2
2014-Oct-24 15:17 254 5 gusting 8 12.8
2014-Oct-24 15:07 232 2 gusting 7 13.3
2014-Oct-24 14:57 296 3 gusting 8 13.9
2014-Oct-24 14:47 330 4 gusting 7 13.9
2014-Oct-24 14:17 028 6 gusting 11 14.4
2014-Oct-24 14:07 024 6 gusting 14 14.4
2014-Oct-24 13:57 078 3 gusting 11 15.0
2014-Oct-24 13:47 071 5 gusting 11 15.0
2014-Oct-24 13:37 062 4 gusting 12 15.0
2014-Oct-24 13:27 086 5 gusting 10 15.0
2014-Oct-24 13:17 081 0 gusting 6 15.0
2014-Oct-24 13:07 119 2 gusting 11 15.0
2014-Oct-24 12:57 114 5 gusting 12 15.0
2014-Oct-24 12:47 107 3 gusting 13 15.0
2014-Oct-24 12:37 089 5 gusting 12 15.0
2014-Oct-24 12:27 090 6 gusting 12 15.0
2014-Oct-24 12:17 099 4 gusting 15 14.4
2014-Oct-24 12:07 104 4 gusting 14 14.4
2014-Oct-24 11:57 112 3 gusting 13 14.4
2014-Oct-24 11:47 125 5 gusting 13 14.4
2014-Oct-24 11:37 131 5 gusting 12 14.4
2014-Oct-24 11:27 095 2 gusting 14 14.4
2014-Oct-24 11:17 090 6 gusting 13 14.4
2014-Oct-24 11:07 103 6 gusting 15 14.4
2014-Oct-24 10:57 124 4 gusting 8 14.4
2014-Oct-24 10:47 120 4 gusting 12 14.4
2014-Oct-24 10:37 096 5 gusting 14 14.4
2014-Oct-24 10:27 092 7 gusting 13 13.9
2014-Oct-24 10:17 090 7 gusting 13 13.3
2014-Oct-24 10:07 114 6 gusting 14 13.3
2014-Oct-24 09:57 107 7 gusting 15 13.3
2014-Oct-24 09:47 123 10 gusting 18 13.3
2014-Oct-24 09:37 116 5 gusting 15 13.3
2014-Oct-24 09:27 116 6 gusting 21 13.3
2014-Oct-24 09:17 084 7 gusting 19 13.3
2014-Oct-24 09:07 143 6 gusting 20 13.3
2014-Oct-24 08:57 108 5 gusting 22 12.8
2014-Oct-24 08:47 139 10 gusting 21 12.8
2014-Oct-24 08:37 118 12 gusting 26 13.3
2014-Oct-24 08:27 137 9 gusting 19 13.3
2014-Oct-24 08:17 141 10 gusting 22 13.3
2014-Oct-24 08:07 137 10 gusting 19 13.3
2014-Oct-24 07:57 076 5 gusting 15 13.3
2014-Oct-24 07:47 132 7 gusting 24 13.3
2014-Oct-24 07:37 146 7 gusting 18 13.3
2014-Oct-24 07:27 126 8 gusting 21 13.3
2014-Oct-24 07:17 121 8 gusting 20 13.3
2014-Oct-24 07:07 141 7 gusting 26 13.3
2014-Oct-24 06:47 105 6 gusting 20 13.3
2014-Oct-24 06:37 140 6 gusting 18 13.3
2014-Oct-24 06:27 081 6 gusting 12 13.3
2014-Oct-24 06:17 098 7 gusting 15 13.3
2014-Oct-24 06:07 116 11 gusting 26 13.9
2014-Oct-24 05:57 158 7 gusting 18 13.3
2014-Oct-24 05:47 138 5 gusting 15 13.3
2014-Oct-24 05:37 097 4 gusting 18 13.3
2014-Oct-24 05:27 096 8 gusting 19 13.3
2014-Oct-24 05:17 151 6 gusting 19 12.8
2014-Oct-24 05:07 144 6 gusting 19 12.8
2014-Oct-24 04:57 135 7 gusting 15 12.8
2014-Oct-24 04:47 085 8 gusting 11 12.2
2014-Oct-23 23:37 058 5 gusting 10 11.1
2014-Oct-23 23:27 041 3 gusting 7 11.1
2014-Oct-23 23:17 072 2 gusting 7 11.1
2014-Oct-23 23:07 069 1 gusting 6 11.7